Time;durP1;ratioP1;P1;durP2;ratioP2;P2;SDS_P1;SDS_P2;PMS_P1;PMS_P2;Temp;Humidity;BMP_temperature;BMP_pressure;BME280_temperature;BME280_humidity;BME280_pressure;Samples;Min_cycle;Max_cycle;Signal;HPM_P1;HPM_P2
2021/12/04 00:00:07;;;;;;;41.50;19.15;;;;;;;;;;5035106;28;20396;-66
2021/12/04 00:02:33;;;;;;;40.97;20.05;;;;;;;;;;5052803;28;20091;-66
2021/12/04 00:05:01;;;;;;;38.65;19.77;;;;;;;;;;5052987;28;20376;-66
2021/12/04 00:07:29;;;;;;;39.63;19.27;;;;;;;;;;5052605;28;20094;-66
2021/12/04 00:10:00;;;;;;;41.08;19.92;;;;;;;;;;5052336;28;20053;-66
2021/12/04 00:12:26;;;;;;;38.45;19.73;;;;;;;;;;5052551;28;20076;-66
2021/12/04 00:14:52;;;;;;;40.00;20.83;;;;;;;;;;5052236;28;20361;-66
2021/12/04 00:17:18;;;;;;;41.28;20.70;;;;;;;;;;5052172;28;20041;-66
2021/12/04 00:19:44;;;;;;;39.88;19.88;;;;;;;;;;5034482;28;20090;-66
2021/12/04 00:22:10;;;;;;;40.72;19.83;;;;;;;;;;5017855;28;20136;-66
2021/12/04 00:24:36;;;;;;;39.20;18.25;;;;;;;;;;5050195;28;20069;-66
2021/12/04 00:27:02;;;;;;;39.08;19.67;;;;;;;;;;5052294;28;20484;-66
2021/12/04 00:29:28;;;;;;;40.25;19.75;;;;;;;;;;5052447;28;20090;-66
2021/12/04 00:32:02;;;;;;;41.15;20.85;;;;;;;;;;5051680;28;20500;-66
2021/12/04 00:34:30;;;;;;;37.90;20.48;;;;;;;;;;5034765;28;20049;-66
2021/12/04 00:50:27;;;;;;;38.40;18.23;;;;;;;;;;5051769;28;20052;-66
2021/12/04 00:52:55;;;;;;;44.63;19.67;;;;;;;;;;5033277;28;20126;-66
2021/12/04 00:55:21;;;;;;;42.55;20.08;;;;;;;;;;5051520;28;20045;-66
2021/12/04 00:57:47;;;;;;;45.95;19.42;;;;;;;;;;5051826;28;20397;-66
2021/12/04 01:00:14;;;;;;;43.60;19.00;;;;;;;;;;5051235;28;20048;-66
2021/12/04 01:02:40;;;;;;;50.50;19.85;;;;;;;;;;5051801;28;20587;-66
2021/12/04 01:05:06;;;;;;;40.72;19.27;;;;;;;;;;5034015;28;20183;-66
2021/12/04 01:07:33;;;;;;;45.20;18.85;;;;;;;;;;5051274;28;20041;-66
2021/12/04 01:10:00;;;;;;;46.58;20.45;;;;;;;;;;5033656;28;20053;-66
2021/12/04 01:12:26;;;;;;;43.22;19.42;;;;;;;;;;5051651;28;20067;-66
2021/12/04 01:14:52;;;;;;;38.63;17.95;;;;;;;;;;5051243;28;20041;-66
2021/12/04 01:17:18;;;;;;;39.08;18.15;;;;;;;;;;5051676;28;20083;-66
2021/12/04 01:19:44;;;;;;;35.65;18.50;;;;;;;;;;5051409;28;20053;-66
2021/12/04 01:22:10;;;;;;;39.65;18.55;;;;;;;;;;5050462;28;20055;-66
2021/12/04 01:24:36;;;;;;;41.45;17.85;;;;;;;;;;5051498;28;20194;-66
2021/12/04 01:27:02;;;;;;;38.58;18.27;;;;;;;;;;5051516;28;20640;-66
2021/12/04 01:29:28;;;;;;;39.45;17.55;;;;;;;;;;5050889;28;20041;-66
2021/12/04 01:31:54;;;;;;;32.15;15.68;;;;;;;;;;5051406;28;20037;-66
2021/12/04 01:34:20;;;;;;;37.45;16.15;;;;;;;;;;5051298;28;20099;-66
2021/12/04 01:36:47;;;;;;;32.75;17.08;;;;;;;;;;5050690;28;20036;-66
2021/12/04 01:39:13;;;;;;;32.03;16.33;;;;;;;;;;5051532;28;20483;-66
2021/12/04 01:41:39;;;;;;;28.23;15.32;;;;;;;;;;5051429;28;20499;-66
2021/12/04 01:44:06;;;;;;;28.20;15.10;;;;;;;;;;5050564;28;20725;-66
2021/12/04 01:46:33;;;;;;;26.27;14.75;;;;;;;;;;5051192;28;20041;-66
2021/12/04 01:48:59;;;;;;;26.75;14.93;;;;;;;;;;5033352;28;20092;-66
2021/12/04 01:51:25;;;;;;;27.27;14.50;;;;;;;;;;5050622;28;20049;-66
2021/12/04 01:53:51;;;;;;;24.17;13.93;;;;;;;;;;5033320;28;20059;-66
2021/12/04 01:56:18;;;;;;;25.58;14.25;;;;;;;;;;5051346;28;20044;-66
2021/12/04 01:58:44;;;;;;;24.95;14.07;;;;;;;;;;5050718;28;20533;-66
2021/12/04 02:01:11;;;;;;;23.58;13.63;;;;;;;;;;5051197;28;20391;-66
2021/12/04 02:03:37;;;;;;;25.85;14.13;;;;;;;;;;5032960;28;20116;-66
2021/12/04 02:06:04;;;;;;;22.27;13.10;;;;;;;;;;5032489;28;20041;-66
2021/12/04 02:08:30;;;;;;;23.48;12.68;;;;;;;;;;5054542;28;20372;-66
2021/12/04 02:10:57;;;;;;;22.40;12.60;;;;;;;;;;5055199;28;20036;-66
2021/12/04 02:13:24;;;;;;;23.13;13.60;;;;;;;;;;5054394;28;20084;-66
2021/12/04 02:15:50;;;;;;;20.40;13.05;;;;;;;;;;5054855;28;20045;-66
2021/12/04 02:18:18;;;;;;;23.50;13.55;;;;;;;;;;5054989;28;20430;-66
2021/12/04 02:20:44;;;;;;;20.92;12.32;;;;;;;;;;5036527;28;20052;-66
2021/12/04 02:23:11;;;;;;;23.75;14.27;;;;;;;;;;5054434;28;20510;-66
2021/12/04 02:25:38;;;;;;;22.98;12.98;;;;;;;;;;5054302;28;20037;-66
2021/12/04 02:28:05;;;;;;;21.52;12.43;;;;;;;;;;5054381;28;20041;-66
2021/12/04 02:30:34;;;;;;;21.92;12.95;;;;;;;;;;5054459;28;20033;-66
2021/12/04 02:33:01;;;;;;;24.40;13.98;;;;;;;;;;5054411;28;20120;-66
2021/12/04 02:35:27;;;;;;;21.92;13.65;;;;;;;;;;5054618;28;20076;-66
2021/12/04 02:37:53;;;;;;;22.58;13.50;;;;;;;;;;5054276;28;20044;-66
2021/12/04 02:40:21;;;;;;;21.20;13.20;;;;;;;;;;5054660;28;20080;-66
2021/12/04 02:42:47;;;;;;;22.20;13.52;;;;;;;;;;5036198;28;20044;-66
2021/12/04 02:45:14;;;;;;;26.00;14.27;;;;;;;;;;5053825;28;20483;-66
2021/12/04 02:47:40;;;;;;;21.85;13.68;;;;;;;;;;5054491;28;20060;-66
2021/12/04 02:50:07;;;;;;;23.10;13.95;;;;;;;;;;5054425;28;20041;-66
2021/12/04 02:52:34;;;;;;;24.67;13.55;;;;;;;;;;5053532;28;20065;-66
2021/12/04 02:55:00;;;;;;;20.98;12.60;;;;;;;;;;5053985;28;20116;-66
2021/12/04 02:57:27;;;;;;;22.17;13.18;;;;;;;;;;5054050;28;20040;-66
2021/12/04 02:59:54;;;;;;;23.60;13.50;;;;;;;;;;5035524;28;20102;-66
2021/12/04 03:02:24;;;;;;;21.08;12.90;;;;;;;;;;5054051;28;20049;-66
2021/12/04 03:04:55;;;;;;;20.95;12.52;;;;;;;;;;5053850;28;20545;-66
2021/12/04 03:07:21;;;;;;;20.63;12.35;;;;;;;;;;5053403;28;20033;-66
2021/12/04 03:09:48;;;;;;;21.90;12.82;;;;;;;;;;5053721;28;20052;-66
2021/12/04 03:12:14;;;;;;;23.25;12.63;;;;;;;;;;5053714;28;20466;-66
2021/12/04 03:14:41;;;;;;;21.50;12.07;;;;;;;;;;5053335;28;20033;-66
2021/12/04 03:17:07;;;;;;;22.25;12.25;;;;;;;;;;5035794;28;20044;-66
2021/12/04 03:19:35;;;;;;;19.85;12.60;;;;;;;;;;5053023;28;20702;-66
2021/12/04 03:22:04;;;;;;;20.48;12.10;;;;;;;;;;5053064;28;20052;-66
2021/12/04 03:24:31;;;;;;;20.60;12.25;;;;;;;;;;5035987;28;20056;-66
2021/12/04 03:26:57;;;;;;;17.67;11.25;;;;;;;;;;5053722;28;20179;-66
2021/12/04 03:29:26;;;;;;;19.38;12.02;;;;;;;;;;5052871;28;20045;-66
2021/12/04 03:42:56;;;;;;;18.25;11.43;;;;;;;;;;5052648;28;20553;-66
2021/12/04 03:45:22;;;;;;;18.17;11.32;;;;;;;;;;5053452;28;20048;-66
2021/12/04 03:47:51;;;;;;;21.25;11.80;;;;;;;;;;5035418;28;20052;-66
2021/12/04 03:50:17;;;;;;;19.65;11.57;;;;;;;;;;5052729;28;20128;-66
2021/12/04 03:52:43;;;;;;;18.88;11.35;;;;;;;;;;5053019;28;20051;-66
2021/12/04 03:55:09;;;;;;;19.23;11.10;;;;;;;;;;5053294;28;20029;-66
2021/12/04 03:57:36;;;;;;;21.65;11.60;;;;;;;;;;5052519;28;20086;-66
2021/12/04 04:00:04;;;;;;;19.92;12.02;;;;;;;;;;5052913;28;20053;-66
2021/12/04 04:02:30;;;;;;;20.38;11.75;;;;;;;;;;5053010;28;20045;-66
2021/12/04 04:04:56;;;;;;;19.33;10.82;;;;;;;;;;5052382;28;20094;-66
2021/12/04 04:07:23;;;;;;;23.13;11.63;;;;;;;;;;5052963;28;20041;-66
2021/12/04 04:09:49;;;;;;;21.20;12.02;;;;;;;;;;5034841;28;20048;-66
2021/12/04 04:12:15;;;;;;;19.23;11.55;;;;;;;;;;5052139;28;20040;-66
2021/12/04 04:14:41;;;;;;;21.52;12.00;;;;;;;;;;5052987;28;20093;-66
2021/12/04 04:17:07;;;;;;;24.00;12.15;;;;;;;;;;5052490;28;20045;-66
2021/12/04 04:19:33;;;;;;;17.02;11.52;;;;;;;;;;5052183;28;20466;-66
2021/12/04 04:21:59;;;;;;;23.48;12.00;;;;;;;;;;5052215;28;20091;-66
2021/12/04 04:24:26;;;;;;;22.65;12.30;;;;;;;;;;5052637;28;20048;-66
2021/12/04 04:26:52;;;;;;;21.92;11.65;;;;;;;;;;5051988;28;20156;-66
2021/12/04 04:29:18;;;;;;;19.95;11.00;;;;;;;;;;5052582;28;20060;-66
2021/12/04 04:31:48;;;;;;;19.95;11.40;;;;;;;;;;5051382;28;20039;-66
2021/12/04 04:34:22;;;;;;;19.33;11.18;;;;;;;;;;5051534;28;20099;-66
2021/12/04 04:58:57;;;;;;;17.98;10.55;;;;;;;;;;5051412;28;20095;-66
2021/12/04 05:12:29;;;;;;;19.77;9.77;;;;;;;;;;5050923;28;20052;-66
2021/12/04 05:15:00;;;;;;;;;;;;;;;;;;5052152;28;20063;-66
2021/12/04 05:17:55;;;;;;;16.88;9.88;;;;;;;;;;5051716;28;20608;-66
2021/12/04 05:20:25;;;;;;;17.92;9.75;;;;;;;;;;5051254;28;20045;-66
2021/12/04 05:22:52;;;;;;;20.52;11.35;;;;;;;;;;5033419;28;20053;-66
2021/12/04 05:25:18;;;;;;;17.55;10.30;;;;;;;;;;5051538;28;20051;-66
2021/12/04 05:27:44;;;;;;;21.33;11.32;;;;;;;;;;5050977;28;20073;-66
2021/12/04 05:30:10;;;;;;;18.52;11.02;;;;;;;;;;5051504;28;20041;-66
2021/12/04 05:32:36;;;;;;;15.52;10.05;;;;;;;;;;5051460;28;20047;-66
2021/12/04 05:35:02;;;;;;;16.90;10.40;;;;;;;;;;5050897;28;20043;-66
2021/12/04 05:37:28;;;;;;;17.63;9.98;;;;;;;;;;5051527;28;20044;-66
2021/12/04 05:39:54;;;;;;;19.83;11.23;;;;;;;;;;5051431;28;20155;-66
2021/12/04 05:42:20;;;;;;;17.85;10.30;;;;;;;;;;5032290;28;20051;-66
2021/12/04 05:44:47;;;;;;;20.30;10.40;;;;;;;;;;5051419;28;20040;-66
2021/12/04 05:47:20;;;;;;;15.55;10.38;;;;;;;;;;5051624;28;20037;-66
2021/12/04 05:50:02;;;;;;;16.45;9.77;;;;;;;;;;5050779;28;20049;-66
2021/12/04 05:52:51;;;;;;;17.55;10.20;;;;;;;;;;5051318;28;20044;-66
2021/12/04 05:55:21;;;;;;;16.23;9.38;;;;;;;;;;5050974;28;20120;-66
2021/12/04 05:57:47;;;;;;;15.98;10.32;;;;;;;;;;5051009;28;20488;-66
2021/12/04 06:00:19;;;;;;;16.67;10.20;;;;;;;;;;5033494;28;20476;-66
2021/12/04 06:02:45;;;;;;;16.67;10.73;;;;;;;;;;5050692;28;20124;-66
2021/12/04 06:05:11;;;;;;;19.55;11.20;;;;;;;;;;5051042;28;20044;-66
2021/12/04 06:07:37;;;;;;;22.60;11.50;;;;;;;;;;5033393;28;20045;-66
2021/12/04 06:10:04;;;;;;;19.90;11.10;;;;;;;;;;5051000;28;20461;-66
2021/12/04 06:12:30;;;;;;;17.13;10.35;;;;;;;;;;5050363;28;20171;-66
2021/12/04 06:14:57;;;;;;;22.30;11.10;;;;;;;;;;5051183;28;20037;-66
2021/12/04 06:17:25;;;;;;;21.90;11.55;;;;;;;;;;5051209;28;20041;-66
2021/12/04 06:22:42;;;;;;;20.05;10.98;;;;;;;;;;5050828;28;20510;-66
2021/12/04 06:25:10;;;;;;;20.33;10.48;;;;;;;;;;5050084;28;20053;-66
2021/12/04 06:27:36;;;;;;;18.75;10.75;;;;;;;;;;5031183;28;20076;-66
2021/12/04 06:30:07;;;;;;;21.50;11.85;;;;;;;;;;5030777;28;20045;-66
2021/12/04 06:32:36;;;;;;;17.80;11.00;;;;;;;;;;5030417;28;20415;-66
2021/12/04 06:35:02;;;;;;;21.73;11.30;;;;;;;;;;5030844;28;20041;-66
2021/12/04 06:37:28;;;;;;;19.65;10.98;;;;;;;;;;5031057;28;20048;-66
2021/12/04 06:39:54;;;;;;;21.45;11.57;;;;;;;;;;5012382;28;20048;-66
2021/12/04 06:42:20;;;;;;;19.77;10.63;;;;;;;;;;5030913;28;20052;-66
2021/12/04 06:44:47;;;;;;;18.85;10.50;;;;;;;;;;5030662;28;20045;-66
2021/12/04 06:47:13;;;;;;;21.13;11.00;;;;;;;;;;5030034;28;20132;-66
2021/12/04 06:49:42;;;;;;;21.90;10.55;;;;;;;;;;5030667;28;20049;-66
2021/12/04 06:52:14;;;;;;;21.15;11.77;;;;;;;;;;5030856;28;20123;-66
2021/12/04 06:54:42;;;;;;;19.73;11.38;;;;;;;;;;5032008;28;20037;-66
2021/12/04 06:57:10;;;;;;;19.10;10.90;;;;;;;;;;5034395;28;20041;-66
2021/12/04 06:59:38;;;;;;;18.38;10.90;;;;;;;;;;5034433;28;20056;-66
2021/12/04 07:02:05;;;;;;;20.65;11.40;;;;;;;;;;5033596;28;20049;-66
2021/12/04 07:04:37;;;;;;;20.90;10.65;;;;;;;;;;5034129;28;20160;-66
2021/12/04 07:07:08;;;;;;;23.27;12.32;;;;;;;;;;5016422;28;20056;-66
2021/12/04 07:09:34;;;;;;;19.67;10.63;;;;;;;;;;5033420;28;20042;-66
2021/12/04 07:12:00;;;;;;;22.27;11.57;;;;;;;;;;5034100;28;20049;-66
2021/12/04 07:14:27;;;;;;;17.55;10.45;;;;;;;;;;5034095;28;20042;-66
2021/12/04 07:16:54;;;;;;;20.38;11.20;;;;;;;;;;5033261;28;20042;-66
2021/12/04 07:19:20;;;;;;;21.95;10.80;;;;;;;;;;5034058;28;20516;-66
2021/12/04 07:21:46;;;;;;;19.38;10.93;;;;;;;;;;5033974;28;20052;-66
2021/12/04 07:24:13;;;;;;;18.88;10.32;;;;;;;;;;5015254;28;20123;-66
2021/12/04 07:26:39;;;;;;;19.50;10.88;;;;;;;;;;5045922;28;20037;-66
2021/12/04 07:29:06;;;;;;;18.75;10.30;;;;;;;;;;5053765;28;20283;-66
2021/12/04 07:31:33;;;;;;;18.27;10.13;;;;;;;;;;5053022;28;20436;-66
2021/12/04 07:33:59;;;;;;;25.25;10.50;;;;;;;;;;5035750;28;20044;-66
2021/12/04 07:36:26;;;;;;;17.35;10.25;;;;;;;;;;5053652;28;20114;-66
2021/12/04 07:38:52;;;;;;;19.40;8.80;;;;;;;;;;5053415;28;20048;-66
2021/12/04 07:41:18;;;;;;;17.00;9.82;;;;;;;;;;5052848;28;20041;-66
2021/12/04 07:43:45;;;;;;;15.65;9.43;;;;;;;;;;5053447;28;20037;-66
2021/12/04 07:46:11;;;;;;;15.90;8.55;;;;;;;;;;5053487;28;20040;-66
2021/12/04 07:48:38;;;;;;;13.50;8.40;;;;;;;;;;5052726;28;20543;-66
2021/12/04 07:51:05;;;;;;;13.32;7.47;;;;;;;;;;5052984;28;20048;-66
2021/12/04 07:53:32;;;;;;;12.70;8.20;;;;;;;;;;5053312;28;20041;-66
2021/12/04 07:55:58;;;;;;;12.23;7.85;;;;;;;;;;5052677;28;20036;-66
2021/12/04 07:58:24;;;;;;;13.57;8.27;;;;;;;;;;5052820;28;20040;-66
2021/12/04 08:00:51;;;;;;;10.68;7.20;;;;;;;;;;5053154;28;20033;-66
2021/12/04 08:03:17;;;;;;;12.63;7.78;;;;;;;;;;5052351;28;20040;-66
2021/12/04 08:05:44;;;;;;;10.85;7.75;;;;;;;;;;5034898;28;20561;-66
2021/12/04 08:08:10;;;;;;;11.50;7.40;;;;;;;;;;5035044;28;20053;-66
2021/12/04 08:10:36;;;;;;;11.43;7.97;;;;;;;;;;5052342;28;20672;-66
2021/12/04 08:13:03;;;;;;;9.68;6.68;;;;;;;;;;5052789;28;20037;-66
2021/12/04 08:15:31;;;;;;;11.63;8.27;;;;;;;;;;5034866;28;20041;-66
2021/12/04 08:17:58;;;;;;;11.68;7.40;;;;;;;;;;5052079;28;20086;-66
2021/12/04 08:20:26;;;;;;;11.30;8.10;;;;;;;;;;5034891;28;20049;-66
2021/12/04 08:22:53;;;;;;;13.27;8.68;;;;;;;;;;5052430;28;20466;-66
2021/12/04 08:25:19;;;;;;;13.00;8.15;;;;;;;;;;5052036;28;20044;-66
2021/12/04 08:27:46;;;;;;;11.52;8.00;;;;;;;;;;5034716;28;20052;-66
2021/12/04 08:30:13;;;;;;;14.00;9.15;;;;;;;;;;5052449;28;20043;-66
2021/12/04 08:32:40;;;;;;;15.90;9.40;;;;;;;;;;5051679;28;20037;-66
2021/12/04 08:35:07;;;;;;;15.05;9.00;;;;;;;;;;5034706;28;20045;-66
2021/12/04 08:37:33;;;;;;;12.75;8.75;;;;;;;;;;5052461;28;20120;-66
2021/12/04 08:39:59;;;;;;;13.77;8.93;;;;;;;;;;5052079;28;20124;-66
2021/12/04 08:42:26;;;;;;;16.42;9.93;;;;;;;;;;5052463;28;20456;-66
2021/12/04 08:44:53;;;;;;;15.80;9.63;;;;;;;;;;5052327;28;20193;-66
2021/12/04 08:47:19;;;;;;;17.48;10.13;;;;;;;;;;5051655;28;20548;-66
2021/12/04 08:49:45;;;;;;;16.90;10.73;;;;;;;;;;5051836;28;20036;-66
2021/12/04 08:52:16;;;;;;;16.33;10.23;;;;;;;;;;5051908;28;20124;-66
2021/12/04 08:54:42;;;;;;;17.20;10.30;;;;;;;;;;5051726;28;20048;-66
2021/12/04 08:57:08;;;;;;;17.02;9.88;;;;;;;;;;5052160;28;20463;-66
2021/12/04 08:59:35;;;;;;;19.48;10.40;;;;;;;;;;5052059;28;20044;-66
2021/12/04 09:02:01;;;;;;;18.25;10.50;;;;;;;;;;5051293;28;20044;-66
2021/12/04 09:04:29;;;;;;;21.25;11.05;;;;;;;;;;5051955;28;20472;-66
2021/12/04 09:06:56;;;;;;;21.25;11.68;;;;;;;;;;5051924;28;20041;-66
2021/12/04 09:09:23;;;;;;;18.15;10.35;;;;;;;;;;5051301;28;20036;-66
2021/12/04 09:11:50;;;;;;;19.92;9.98;;;;;;;;;;5051723;28;20033;-66
2021/12/04 09:14:17;;;;;;;18.80;11.20;;;;;;;;;;5051815;28;20044;-66
2021/12/04 09:16:44;;;;;;;20.52;10.27;;;;;;;;;;5050480;28;20045;-66
2021/12/04 09:19:10;;;;;;;20.27;10.38;;;;;;;;;;5051711;28;20060;-66
2021/12/04 09:21:38;;;;;;;18.98;10.98;;;;;;;;;;5051603;28;20051;-66
2021/12/04 09:24:12;;;;;;;22.98;10.15;;;;;;;;;;5050540;28;20065;-66
2021/12/04 10:12:57;;;;;;;23.60;11.73;;;;;;;;;;5050789;28;20080;-66
2021/12/04 10:15:56;;;;;;;22.90;11.68;;;;;;;;;;5050596;28;20044;-66
2021/12/04 10:18:48;;;;;;;18.70;10.07;;;;;;;;;;5050723;28;20134;-66
2021/12/04 10:34:53;;;;;;;22.65;11.13;;;;;;;;;;5054646;28;20415;-66
2021/12/04 10:37:25;;;;;;;26.27;12.60;;;;;;;;;;5054064;28;20033;-66
2021/12/04 10:39:54;;;;;;;20.30;11.27;;;;;;;;;;5054861;28;20120;-66
2021/12/04 10:42:24;;;;;;;23.95;12.25;;;;;;;;;;5054556;28;20482;-66
2021/12/04 10:44:52;;;;;;;25.77;12.73;;;;;;;;;;5053564;28;20049;-66
2021/12/04 10:47:27;;;;;;;28.48;12.40;;;;;;;;;;5054634;28;20816;-66
2021/12/04 10:50:28;;;;;;;24.95;12.43;;;;;;;;;;5054130;28;20705;-66
2021/12/04 10:53:00;;;;;;;29.40;12.20;;;;;;;;;;5053706;28;20411;-66
2021/12/04 10:55:43;;;;;;;26.40;12.50;;;;;;;;;;5036522;28;20044;-66
2021/12/04 11:00:59;;;;;;;29.05;13.70;;;;;;;;;;5053420;28;20086;-66
2021/12/04 11:41:10;;;;;;;31.73;14.00;;;;;;;;;;5052865;28;20489;-66
2021/12/04 11:44:00;;;;;;;34.53;15.05;;;;;;;;;;5052891;28;20041;-66
2021/12/04 11:49:28;;;;;;;34.53;15.32;;;;;;;;;;5053289;28;20068;-66
2021/12/04 11:51:57;;;;;;;37.35;16.42;;;;;;;;;;5052388;28;20037;-66
2021/12/04 11:54:46;;;;;;;33.17;15.00;;;;;;;;;;5035207;28;20075;-66
2021/12/04 11:57:13;;;;;;;32.30;14.25;;;;;;;;;;5053353;28;20662;-66
2021/12/04 11:59:41;;;;;;;39.05;16.88;;;;;;;;;;5052539;28;20041;-66
2021/12/04 12:02:10;;;;;;;41.67;18.05;;;;;;;;;;5052971;28;20045;-66
2021/12/04 12:04:38;;;;;;;42.97;17.10;;;;;;;;;;5052926;28;20120;-66
2021/12/04 12:07:16;;;;;;;38.95;16.48;;;;;;;;;;5034380;28;20056;-66
2021/12/04 12:09:43;;;;;;;35.70;15.82;;;;;;;;;;5053043;28;20391;-66
2021/12/04 12:12:13;;;;;;;43.42;17.75;;;;;;;;;;5052821;28;20045;-66
2021/12/04 12:14:48;;;;;;;45.58;18.75;;;;;;;;;;5051988;28;20116;-66
2021/12/04 12:17:16;;;;;;;41.90;16.65;;;;;;;;;;5052667;28;20077;-66
2021/12/04 12:19:49;;;;;;;43.70;18.63;;;;;;;;;;5035027;28;20052;-66
2021/12/04 12:22:30;;;;;;;43.08;17.98;;;;;;;;;;5051769;28;20084;-65
2021/12/04 12:25:13;;;;;;;47.92;19.85;;;;;;;;;;5052602;28;20048;-65
2021/12/04 12:27:55;;;;;;;49.38;20.40;;;;;;;;;;5032135;28;20045;-66
2021/12/04 12:33:56;;;;;;;51.88;19.65;;;;;;;;;;5032659;28;20069;-66
2021/12/04 12:36:23;;;;;;;47.47;19.85;;;;;;;;;;5032162;28;20041;-66
2021/12/04 12:38:54;;;;;;;55.83;20.98;;;;;;;;;;5032550;28;20547;-66
2021/12/04 12:41:28;;;;;;;47.65;19.05;;;;;;;;;;5031954;28;20532;-66
2021/12/04 12:44:05;;;;;;;56.75;22.20;;;;;;;;;;5031827;28;20103;-66
2021/12/04 12:46:50;;;;;;;51.92;20.88;;;;;;;;;;5032600;28;20560;-66
2021/12/04 12:49:18;;;;;;;44.50;19.95;;;;;;;;;;5032352;28;20724;-66
2021/12/04 12:51:46;;;;;;;53.35;21.15;;;;;;;;;;5030384;28;20101;-66
2021/12/04 12:54:22;;;;;;;53.70;21.27;;;;;;;;;;5032342;28;20033;-66
2021/12/04 12:56:56;;;;;;;46.65;19.25;;;;;;;;;;5031917;28;20124;-66
2021/12/04 12:59:35;;;;;;;48.17;18.90;;;;;;;;;;5013910;28;20060;-66
2021/12/04 13:13:26;;;;;;;44.58;17.35;;;;;;;;;;5031124;28;20056;-66
2021/12/04 13:15:52;;;;;;;48.03;19.27;;;;;;;;;;5032018;28;20038;-66
2021/12/04 13:18:23;;;;;;;51.13;19.85;;;;;;;;;;5031596;28;20041;-66
2021/12/04 13:20:51;;;;;;;54.22;20.88;;;;;;;;;;5013545;28;20049;-66
2021/12/04 13:23:19;;;;;;;58.90;22.40;;;;;;;;;;5031451;28;20080;-66
2021/12/04 13:25:55;;;;;;;51.75;22.70;;;;;;;;;;5035965;28;20518;-66
2021/12/04 13:28:22;;;;;;;55.17;23.33;;;;;;;;;;5050919;28;20429;-66
2021/12/04 13:30:48;;;;;;;64.57;26.90;;;;;;;;;;5051535;28;20033;-66
2021/12/04 13:33:14;;;;;;;55.78;22.63;;;;;;;;;;5051549;28;20095;-66
2021/12/04 13:35:45;;;;;;;62.83;24.67;;;;;;;;;;5032847;28;20121;-66
2021/12/04 13:38:11;;;;;;;59.03;23.73;;;;;;;;;;5051693;28;20368;-66
2021/12/04 13:40:38;;;;;;;55.05;24.10;;;;;;;;;;5051267;28;20123;-66
2021/12/04 13:43:08;;;;;;;56.85;24.52;;;;;;;;;;5032523;28;20056;-66
2021/12/04 13:45:34;;;;;;;58.20;24.70;;;;;;;;;;5051433;28;20110;-66
2021/12/04 13:48:00;;;;;;;67.60;26.00;;;;;;;;;;5051550;28;20156;-66
2021/12/04 13:53:01;;;;;;;65.38;26.67;;;;;;;;;;5051327;28;20084;-66
2021/12/04 13:55:29;;;;;;;64.38;26.80;;;;;;;;;;5051052;28;20132;-66
2021/12/04 13:57:57;;;;;;;72.47;27.35;;;;;;;;;;5050774;28;20406;-66
2021/12/04 14:00:23;;;;;;;73.22;28.27;;;;;;;;;;5051124;28;20128;-66
2021/12/04 14:02:49;;;;;;;78.97;30.85;;;;;;;;;;5051636;28;20087;-66
2021/12/04 14:05:21;;;;;;;63.25;27.33;;;;;;;;;;5054590;28;20037;-66
2021/12/04 14:07:53;;;;;;;69.83;27.70;;;;;;;;;;5055049;28;20045;-66
2021/12/04 14:10:21;;;;;;;75.07;31.20;;;;;;;;;;5055245;28;20041;-66
2021/12/04 14:12:48;;;;;;;68.97;29.02;;;;;;;;;;5036749;28;20041;-66
2021/12/04 14:15:15;;;;;;;67.25;30.15;;;;;;;;;;5055199;28;20593;-66
2021/12/04 14:17:42;;;;;;;70.22;28.08;;;;;;;;;;5055175;28;20036;-66
2021/12/04 14:20:08;;;;;;;63.50;28.30;;;;;;;;;;5054217;28;20037;-66
2021/12/04 14:22:34;;;;;;;61.15;26.15;;;;;;;;;;5054745;28;20110;-66
2021/12/04 14:25:02;;;;;;;72.60;29.05;;;;;;;;;;5054644;28;20045;-66
2021/12/04 14:27:34;;;;;;;63.20;27.60;;;;;;;;;;5054256;28;20049;-66
2021/12/04 14:30:12;;;;;;;71.43;28.90;;;;;;;;;;5054738;28;20033;-66
2021/12/04 14:32:40;;;;;;;66.38;29.52;;;;;;;;;;5036578;28;20128;-66
2021/12/04 14:35:06;;;;;;;67.90;31.40;;;;;;;;;;5054078;28;20138;-66
2021/12/04 14:37:33;;;;;;;72.05;30.50;;;;;;;;;;5054814;28;20029;-66
2021/12/04 14:39:59;;;;;;;75.70;29.67;;;;;;;;;;5054791;28;20072;-66
2021/12/04 14:42:27;;;;;;;75.63;31.67;;;;;;;;;;5053688;28;20040;-66
2021/12/04 14:44:58;;;;;;;73.35;34.03;;;;;;;;;;5054475;28;20041;-66
2021/12/04 14:47:28;;;;;;;68.53;30.25;;;;;;;;;;5054377;28;20041;-66
2021/12/04 14:50:00;;;;;;;60.20;26.55;;;;;;;;;;5053771;28;20036;-66
2021/12/04 14:52:27;;;;;;;58.50;28.03;;;;;;;;;;5054512;28;20041;-66
2021/12/04 14:54:53;;;;;;;60.38;28.70;;;;;;;;;;5054009;28;20271;-66
2021/12/04 14:57:24;;;;;;;62.10;26.60;;;;;;;;;;5053644;28;20033;-66
2021/12/04 15:00:10;;;;;;;68.43;27.95;;;;;;;;;;5054393;28;20526;-66
2021/12/04 15:02:37;;;;;;;70.70;30.98;;;;;;;;;;5054015;28;20536;-66
2021/12/04 15:05:04;;;;;;;62.58;27.42;;;;;;;;;;5053566;28;20048;-66
2021/12/04 15:07:32;;;;;;;73.55;30.23;;;;;;;;;;5054179;28;20516;-66
2021/12/04 15:09:58;;;;;;;66.78;30.25;;;;;;;;;;5036096;28;20052;-66
2021/12/04 15:12:30;;;;;;;63.65;28.30;;;;;;;;;;5053242;28;20041;-66
2021/12/04 15:15:02;;;;;;;61.27;26.73;;;;;;;;;;5053013;28;20530;-66
2021/12/04 15:17:28;;;;;;;61.80;27.85;;;;;;;;;;5054105;28;20622;-66
2021/12/04 15:19:59;;;;;;;60.17;26.63;;;;;;;;;;5035103;28;20448;-66
2021/12/04 15:22:34;;;;;;;67.38;27.83;;;;;;;;;;5051163;28;20104;-66
2021/12/04 15:25:02;;;;;;;60.13;27.50;;;;;;;;;;5053473;28;20056;-66
2021/12/04 15:27:29;;;;;;;60.95;27.45;;;;;;;;;;5053121;28;20116;-66
2021/12/04 15:29:55;;;;;;;71.88;28.63;;;;;;;;;;5053491;28;20053;-66
2021/12/04 15:32:24;;;;;;;69.45;27.95;;;;;;;;;;5053627;28;20534;-66
2021/12/04 15:34:59;;;;;;;67.45;27.70;;;;;;;;;;5035124;28;20040;-65
2021/12/04 15:37:26;;;;;;;59.45;26.23;;;;;;;;;;5053673;28;20063;-66
2021/12/04 15:39:52;;;;;;;69.78;28.98;;;;;;;;;;5053660;28;20075;-66
2021/12/04 15:42:30;;;;;;;66.63;26.92;;;;;;;;;;5052827;28;20064;-66
2021/12/04 15:45:21;;;;;;;60.70;26.95;;;;;;;;;;5053346;28;20610;-66
2021/12/04 15:48:07;;;;;;;72.25;31.00;;;;;;;;;;5034901;28;20075;-66
2021/12/04 15:53:13;;;;;;;62.47;28.38;;;;;;;;;;5053114;28;20043;-66
2021/12/04 15:55:41;;;;;;;65.40;27.83;;;;;;;;;;5052325;28;20067;-66
2021/12/04 15:58:13;;;;;;;63.40;27.25;;;;;;;;;;5035499;28;20041;-66
2021/12/04 16:00:44;;;;;;;63.85;28.15;;;;;;;;;;5053203;28;20430;-66
2021/12/04 16:03:13;;;;;;;69.78;28.25;;;;;;;;;;5052267;28;20059;-66
2021/12/04 16:05:43;;;;;;;65.65;27.42;;;;;;;;;;5035363;28;20519;-66
2021/12/04 16:08:13;;;;;;;67.75;28.48;;;;;;;;;;5053160;28;20037;-66
2021/12/04 16:10:40;;;;;;;66.55;28.98;;;;;;;;;;5034418;28;20049;-66
2021/12/04 16:13:08;;;;;;;62.85;27.35;;;;;;;;;;5052717;28;20037;-66
2021/12/04 16:15:35;;;;;;;63.20;27.70;;;;;;;;;;5052859;28;20071;-66
2021/12/04 16:18:01;;;;;;;67.47;28.38;;;;;;;;;;5034606;28;20087;-66
2021/12/04 16:20:30;;;;;;;67.65;27.77;;;;;;;;;;5053107;28;20124;-66
2021/12/04 16:22:58;;;;;;;65.55;28.67;;;;;;;;;;5052090;28;20057;-66
2021/12/04 16:25:26;;;;;;;62.22;28.13;;;;;;;;;;5051537;28;20045;-65
2021/12/04 16:28:01;;;;;;;57.45;26.85;;;;;;;;;;5052422;28;20127;-65
2021/12/04 16:30:35;;;;;;;57.55;24.17;;;;;;;;;;5052072;28;20045;-65
2021/12/04 16:33:12;;;;;;;63.75;26.65;;;;;;;;;;5051949;28;20048;-65
2021/12/04 16:35:44;;;;;;;62.95;26.52;;;;;;;;;;5052609;28;20041;-65
2021/12/04 16:38:13;;;;;;;60.58;25.67;;;;;;;;;;5052377;28;20408;-65
2021/12/04 16:40:42;;;;;;;56.80;25.27;;;;;;;;;;5051771;28;20132;-65
2021/12/04 16:43:14;;;;;;;59.15;26.40;;;;;;;;;;5052365;28;20163;-65
2021/12/04 16:45:43;;;;;;;59.78;26.15;;;;;;;;;;5052334;28;20040;-65
2021/12/04 16:48:11;;;;;;;61.33;27.50;;;;;;;;;;5051699;28;20044;-65
2021/12/04 16:57:02;;;;;;;58.75;25.80;;;;;;;;;;5051582;28;20123;-66
2021/12/04 16:58:51;;;;;;;53.50;23.98;;;;;;;;;;5034383;28;20045;-66
2021/12/04 17:01:17;;;;;;;51.30;24.58;;;;;;;;;;5051900;28;20410;-66
2021/12/04 17:03:43;;;;;;;54.67;26.55;;;;;;;;;;5051177;28;20045;-65
2021/12/04 17:06:09;;;;;;;64.47;29.38;;;;;;;;;;5052007;28;20383;-65
2021/12/04 17:08:36;;;;;;;53.58;24.85;;;;;;;;;;5051855;28;20513;-65
2021/12/04 17:11:03;;;;;;;49.22;23.15;;;;;;;;;;5051316;28;20072;-65
2021/12/04 17:13:30;;;;;;;49.85;23.13;;;;;;;;;;5051698;28;20037;-65
2021/12/04 17:15:57;;;;;;;51.45;23.90;;;;;;;;;;5051872;28;20029;-65
2021/12/04 17:18:25;;;;;;;43.47;20.88;;;;;;;;;;5051181;28;20067;-65
2021/12/04 17:20:52;;;;;;;47.30;23.10;;;;;;;;;;5051861;28;20052;-65
2021/12/04 17:23:19;;;;;;;46.88;22.30;;;;;;;;;;5051251;28;20057;-65
2021/12/04 17:25:45;;;;;;;43.10;21.67;;;;;;;;;;5050503;28;20151;-65
2021/12/04 17:28:13;;;;;;;46.45;22.05;;;;;;;;;;5051598;28;20037;-65
2021/12/04 17:30:40;;;;;;;42.75;20.58;;;;;;;;;;5051496;28;20102;-65
2021/12/04 17:33:06;;;;;;;38.40;19.85;;;;;;;;;;5050574;28;20041;-65
2021/12/04 17:35:33;;;;;;;41.80;19.88;;;;;;;;;;5051471;28;20782;-65